Time;durP1;ratioP1;P1;durP2;ratioP2;P2;SDS_P1;SDS_P2;PMS_P1;PMS_P2;Temp;Humidity;BMP_temperature;BMP_pressure;BME280_temperature;BME280_humidity;BME280_pressure;Samples;Min_cycle;Max_cycle;Signal;HPM_P1;HPM_P2
2021/03/04 00:00:26;;;;;;;;;9.75;8.25;;;;;13.80;46.35;98874.72;4687389;29;104598;-77
2021/03/04 00:02:54;;;;;;;;;11.25;9.75;;;;;13.80;47.32;98872.00;4680817;29;102988;-76
2021/03/04 00:05:20;;;;;;;;;8.75;8.00;;;;;13.78;46.55;98872.19;4685046;29;102815;-76
2021/03/04 00:07:47;;;;;;;;;9.50;8.50;;;;;13.79;46.51;98870.31;4686713;29;104080;-76
2021/03/04 00:10:16;;;;;;;;;8.75;8.00;;;;;13.78;47.50;98868.63;4683255;29;104062;-76
2021/03/04 00:12:43;;;;;;;;;8.00;7.00;;;;;13.76;47.07;98857.16;4681663;29;102989;-77
2021/03/04 00:15:11;;;;;;;;;13.25;9.00;;;;;13.75;47.52;98861.75;4684251;29;102923;-76
2021/03/04 00:17:46;;;;;;;;;13.00;11.00;;;;;13.75;46.72;98853.59;4676843;29;109549;-77
2021/03/04 00:20:19;;;;;;;;;12.50;10.00;;;;;13.74;46.87;98853.81;4670292;29;104706;-77
2021/03/04 00:22:45;;;;;;;;;13.00;10.25;;;;;13.73;46.95;98857.59;4667754;29;102829;-76
2021/03/04 00:25:12;;;;;;;;;9.75;8.25;;;;;13.74;47.11;98851.09;4666742;29;102993;-77
2021/03/04 00:27:39;;;;;;;;;10.00;7.25;;;;;13.73;46.74;98852.97;4671841;29;106655;-76
2021/03/04 00:30:07;;;;;;;;;13.00;11.25;;;;;13.73;46.48;98846.72;4662209;29;102864;-76
2021/03/04 00:32:34;;;;;;;;;11.75;8.50;;;;;13.69;46.71;98849.03;4665055;29;103084;-76
2021/03/04 00:35:01;;;;;;;;;9.00;9.00;;;;;13.72;47.17;98843.19;4665255;29;103137;-77
2021/03/04 00:37:27;;;;;;;;;11.75;8.50;;;;;13.70;46.48;98839.00;4662416;29;104501;-77
2021/03/04 00:39:54;;;;;;;;;10.25;9.00;;;;;13.70;46.89;98841.72;4666686;29;102949;-77
2021/03/04 00:42:21;;;;;;;;;9.25;9.00;;;;;13.69;46.50;98837.31;4662951;29;103668;-77
2021/03/04 00:44:48;;;;;;;;;12.00;10.00;;;;;13.68;46.88;98828.34;4662036;29;104900;-77
2021/03/04 00:47:15;;;;;;;;;11.25;9.50;;;;;13.70;46.55;98825.41;4665732;29;104092;-78
2021/03/04 00:49:42;;;;;;;;;14.00;10.50;;;;;13.68;47.32;98822.09;4669290;29;102838;-77
2021/03/04 00:52:08;;;;;;;;;11.75;11.00;;;;;13.68;47.26;98811.22;4660810;29;102870;-77
2021/03/04 00:54:37;;;;;;;;;9.25;9.25;;;;;13.68;47.54;98816.66;4659053;29;103056;-77
2021/03/04 00:57:04;;;;;;;;;10.75;10.50;;;;;13.66;46.96;98808.69;4666100;29;104051;-77
2021/03/04 00:59:30;;;;;;;;;11.50;10.50;;;;;13.66;47.34;98803.28;4662374;29;102903;-77
2021/03/04 01:01:57;;;;;;;;;10.50;8.75;;;;;13.66;47.20;98802.44;4656120;29;102728;-77
2021/03/04 01:04:25;;;;;;;;;8.50;8.50;;;;;13.65;46.56;98798.03;4651479;29;102991;-76
2021/03/04 01:06:52;;;;;;;;;12.75;10.00;;;;;13.63;46.66;98786.56;4650453;29;103865;-76
2021/03/04 01:09:18;;;;;;;;;13.00;12.25;;;;;13.64;46.96;98782.81;4639078;29;103184;-76
2021/03/04 01:11:45;;;;;;;;;12.25;9.75;;;;;13.62;46.57;98784.91;4654798;29;102829;-76
2021/03/04 01:14:12;;;;;;;;;13.25;11.50;;;;;13.63;47.34;98781.97;4660776;29;102945;-76
2021/03/04 01:16:39;;;;;;;;;9.75;8.00;;;;;13.63;46.83;98776.53;4662568;29;103739;-76
2021/03/04 01:19:06;;;;;;;;;11.75;10.00;;;;;13.62;47.33;98772.16;4663820;29;104004;-76
2021/03/04 01:21:33;;;;;;;;;9.00;8.75;;;;;13.62;47.47;98780.31;4661871;29;102853;-76
2021/03/04 01:24:05;;;;;;;;;9.50;8.25;;;;;13.62;47.30;98769.44;4682495;29;103000;-76
2021/03/04 01:26:32;;;;;;;;;11.75;9.75;;;;;13.61;46.82;98761.47;4676930;29;104462;-76
2021/03/04 01:28:59;;;;;;;;;13.00;9.00;;;;;13.61;46.76;98761.47;4678473;29;104616;-76
2021/03/04 01:31:26;;;;;;;;;10.75;9.25;;;;;13.59;46.36;98759.00;4685216;29;103239;-76
2021/03/04 01:33:53;;;;;;;;;14.75;11.25;;;;;13.60;46.24;98754.41;4680718;29;102922;-76
2021/03/04 01:36:20;;;;;;;;;9.00;7.75;;;;;13.58;46.89;98751.06;4682122;29;104358;-76
2021/03/04 01:38:46;;;;;;;;;8.75;8.00;;;;;13.58;47.21;98748.34;4685715;29;102960;-76
2021/03/04 01:41:13;;;;;;;;;9.75;9.00;;;;;13.58;46.49;98753.78;4681262;29;102837;-76
2021/03/04 01:43:40;;;;;;;;;13.00;10.00;;;;;13.59;46.68;98752.72;4673184;29;103807;-76
2021/03/04 01:46:07;;;;;;;;;13.25;12.25;;;;;13.58;47.15;98740.19;4669156;29;104063;-76
2021/03/04 01:48:47;;;;;;;;;10.00;9.00;;;;;13.57;46.75;98743.94;4685151;29;102766;-76
2021/03/04 01:51:14;;;;;;;;;10.00;7.75;;;;;13.57;47.04;98739.34;4667715;29;103007;-76
2021/03/04 01:53:40;;;;;;;;;11.25;10.25;;;;;13.55;46.97;98727.88;4668229;29;104047;-76
2021/03/04 01:56:07;;;;;;;;;10.00;8.00;;;;;13.55;47.24;98729.78;4663327;29;104564;-76
2021/03/04 01:58:34;;;;;;;;;12.75;10.00;;;;;13.55;46.35;98727.06;4666148;29;103256;-76
2021/03/04 02:01:01;;;;;;;;;11.75;10.50;;;;;13.55;46.68;98732.47;4630810;29;103235;-76
2021/03/04 02:03:28;;;;;;;;;10.25;9.00;;;;;13.54;46.58;98722.66;4657794;29;103029;-76
2021/03/04 02:05:55;;;;;;;;;9.00;8.25;;;;;13.54;46.70;98711.78;4672763;29;104361;-76
2021/03/04 02:08:26;;;;;;;;;13.75;9.50;;;;;13.53;47.08;98721.81;4665071;29;111950;-76
2021/03/04 02:11:19;;;;;;;;;10.50;9.75;;;;;13.52;46.95;98713.88;4651444;29;103599;-76
2021/03/04 02:13:50;;;;;;;;;9.00;8.50;;;;;13.52;46.46;98713.88;4648807;29;103108;-76
2021/03/04 02:16:45;;;;;;;;;9.75;9.25;;;;;13.52;46.95;98714.72;4650789;29;104288;-76
2021/03/04 02:19:40;;;;;;;;;11.50;9.75;;;;;13.49;46.46;98700.75;4606678;29;103823;-76
2021/03/04 02:22:25;;;;;;;;;7.75;7.25;;;;;13.51;46.46;98691.31;4611347;29;106660;-76
2021/03/04 02:24:57;;;;;;;;;8.25;8.25;;;;;13.51;46.93;98699.47;4681564;29;105303;-76
2021/03/04 02:27:29;;;;;;;;;9.50;8.00;;;;;13.50;47.01;98694.28;4659888;29;111345;-76
2021/03/04 02:30:03;;;;;;;;;9.75;9.75;;;;;13.48;46.64;98686.31;4665912;29;104805;-76
2021/03/04 02:32:30;;;;;;;;;10.50;9.25;;;;;13.48;46.79;98671.91;4684300;29;103550;-76
2021/03/04 02:35:10;;;;;;;;;10.50;9.00;;;;;13.49;46.35;98676.28;4670448;29;102876;-76
2021/03/04 02:37:40;;;;;;;;;12.50;10.50;;;;;13.47;46.67;98671.06;4661734;29;104292;-76
2021/03/04 02:40:09;;;;;;;;;9.25;8.25;;;;;13.48;47.02;98658.31;4682123;29;103065;-78
2021/03/04 02:42:36;;;;;;;;;11.75;8.75;;;;;13.47;46.76;98664.81;4665798;29;104633;-76
2021/03/04 02:45:03;;;;;;;;;11.00;10.00;;;;;13.46;46.83;98661.28;4651560;29;103123;-76
2021/03/04 02:47:30;;;;;;;;;10.00;8.00;;;;;13.47;47.36;98656.66;4664912;29;104586;-76
2021/03/04 02:49:56;;;;;;;;;12.75;8.00;;;;;13.47;46.64;98653.94;4668786;29;104631;-76
2021/03/04 02:52:23;;;;;;;;;10.00;9.00;;;;;13.46;46.81;98644.97;4655904;29;102996;-76
2021/03/04 02:54:50;;;;;;;;;9.00;8.00;;;;;13.46;47.07;98657.72;4672772;29;103016;-76
2021/03/04 02:57:16;;;;;;;;;9.25;8.00;;;;;13.44;47.38;98657.09;4661059;29;104946;-76
2021/03/04 02:59:43;;;;;;;;;9.00;8.00;;;;;13.42;47.09;98649.16;4655364;29;105555;-76
2021/03/04 03:02:10;;;;;;;;;9.75;8.00;;;;;13.45;46.43;98637.03;4666925;29;105221;-76
2021/03/04 03:04:38;;;;;;;;;11.00;8.50;;;;;13.43;47.36;98634.53;4654216;29;105273;-76
2021/03/04 03:07:06;;;;;;;;;9.25;8.00;;;;;13.44;47.43;98640.81;4684021;29;103999;-76
2021/03/04 03:09:33;;;;;;;;;9.00;9.00;;;;;13.43;47.16;98633.69;4665482;29;104223;-78
2021/03/04 03:12:00;;;;;;;;;13.00;10.00;;;;;13.43;47.17;98633.69;4659832;29;103783;-78
2021/03/04 03:14:29;;;;;;;;;7.75;7.50;;;;;13.42;46.55;98622.00;4672294;29;103061;-76
2021/03/04 03:16:58;;;;;;;;;10.00;8.75;;;;;13.41;47.00;98628.50;4684174;29;104481;-76
2021/03/04 03:19:25;;;;;;;;;8.25;8.25;;;;;13.40;47.10;98622.25;4682660;29;103006;-76
2021/03/04 03:21:52;;;;;;;;;8.25;7.75;;;;;13.39;46.43;98623.28;4688431;29;102896;-76
2021/03/04 03:24:19;;;;;;;;;9.00;8.00;;;;;13.40;46.44;98616.81;4667123;29;102935;-76
2021/03/04 03:26:46;;;;;;;;;13.25;10.00;;;;;13.40;47.39;98619.53;4685738;29;104673;-76
2021/03/04 03:29:13;;;;;;;;;8.50;7.50;;;;;13.40;46.79;98626.84;4683388;29;102820;-76
2021/03/04 03:31:40;;;;;;;;;10.75;8.50;;;;;13.38;46.66;98626.19;4686165;29;102929;-76
2021/03/04 03:34:08;;;;;;;;;12.75;10.00;;;;;13.38;47.31;98621.59;4670755;29;103049;-76
2021/03/04 03:36:35;;;;;;;;;8.50;6.75;;;;;13.38;46.40;98605.31;4647489;29;104031;-76
2021/03/04 03:39:04;;;;;;;;;9.75;8.75;;;;;13.37;46.48;98598.22;4665612;29;102928;-76
2021/03/04 03:41:32;;;;;;;;;10.00;8.75;;;;;13.37;47.14;98605.56;4686892;29;104693;-76
2021/03/04 03:43:58;;;;;;;;;11.25;9.50;;;;;13.37;46.68;98609.06;4684272;29;103160;-77
2021/03/04 03:46:27;;;;;;;;;10.50;8.50;;;;;13.37;46.88;98600.13;4684425;29;104372;-76
2021/03/04 03:48:53;;;;;;;;;10.00;8.00;;;;;13.37;46.55;98602.84;4673755;29;102881;-77
2021/03/04 03:51:21;;;;;;;;;8.75;7.75;;;;;13.36;47.22;98607.44;4650811;29;103359;-77
2021/03/04 03:53:48;;;;;;;;;8.50;8.25;;;;;13.36;47.26;98595.72;4673185;29;103025;-77
2021/03/04 03:56:15;;;;;;;;;9.25;9.00;;;;;13.35;46.31;98602.22;4667380;29;103961;-77
2021/03/04 03:58:42;;;;;;;;;9.50;9.00;;;;;13.35;47.37;98600.31;4688236;29;102861;-77
2021/03/04 04:01:09;;;;;;;;;11.75;9.50;;;;;13.34;46.66;98603.25;4656898;29;104785;-77
2021/03/04 04:03:35;;;;;;;;;9.00;8.00;;;;;13.34;47.24;98597.81;4683743;29;104145;-76
2021/03/04 04:06:03;;;;;;;;;9.00;7.50;;;;;13.33;46.88;98599.69;4667885;29;104008;-77
2021/03/04 04:08:30;;;;;;;;;9.00;9.00;;;;;13.34;47.35;98595.09;4670137;29;105333;-76
2021/03/04 04:10:56;;;;;;;;;12.50;9.00;;;;;13.33;47.25;98591.56;4663946;29;102892;-76
2021/03/04 04:13:23;;;;;;;;;12.75;8.00;;;;;13.32;46.83;98589.91;4682432;29;103035;-77
2021/03/04 04:15:50;;;;;;;;;8.75;7.50;;;;;13.33;47.09;98594.28;4652732;29;103823;-77
2021/03/04 04:18:17;;;;;;;;;9.50;8.25;;;;;13.32;47.09;98583.66;4674085;29;102935;-77
2021/03/04 04:20:48;;;;;;;;;9.25;7.75;;;;;13.32;47.33;98579.06;4665316;29;102884;-77
2021/03/04 04:23:14;;;;;;;;;10.75;9.75;;;;;13.31;46.49;98576.53;4661674;29;102953;-76
2021/03/04 04:25:49;;;;;;;;;10.00;9.00;;;;;13.31;47.15;98576.53;4651873;29;104143;-77
2021/03/04 04:28:16;;;;;;;;;12.50;9.00;;;;;13.31;46.51;98571.13;4665163;29;102984;-77
2021/03/04 04:30:42;;;;;;;;;8.25;7.25;;;;;13.31;47.37;98581.97;4666380;29;103413;-76
2021/03/04 04:33:10;;;;;;;;;8.00;7.50;;;;;13.29;47.32;98579.47;4665489;29;103024;-77
2021/03/04 04:35:37;;;;;;;;;9.00;8.00;;;;;13.31;46.47;98588.25;4668418;29;104694;-76
2021/03/04 04:38:04;;;;;;;;;11.25;8.75;;;;;13.27;46.68;98570.72;4665968;29;102846;-77
2021/03/04 04:40:30;;;;;;;;;13.00;9.00;;;;;13.29;47.15;98571.31;4662845;29;107544;-77
2021/03/04 04:42:57;;;;;;;;;10.00;8.75;;;;;13.28;47.38;98561.50;4666354;29;102969;-76
2021/03/04 04:45:24;;;;;;;;;9.00;8.75;;;;;13.28;46.60;98560.69;4670429;29;104017;-77
2021/03/04 04:47:50;;;;;;;;;9.50;8.50;;;;;13.28;46.42;98556.06;4661967;29;102971;-77
2021/03/04 04:50:18;;;;;;;;;9.25;8.75;;;;;13.29;46.87;98557.75;4664742;29;102977;-77
2021/03/04 04:52:44;;;;;;;;;10.75;7.75;;;;;13.28;47.42;98550.63;4664986;29;104709;-77
2021/03/04 04:55:11;;;;;;;;;11.50;9.25;;;;;13.27;46.96;98549.00;4664411;29;104230;-77
2021/03/04 04:57:38;;;;;;;;;7.50;6.75;;;;;13.26;46.52;98547.31;4666757;29;103188;-77
2021/03/04 05:00:05;;;;;;;;;8.00;7.00;;;;;13.27;47.29;98548.16;4665118;29;103790;-76
2021/03/04 05:02:32;;;;;;;;;8.75;8.00;;;;;13.26;46.51;98547.31;4662310;29;103085;-76
2021/03/04 05:04:59;;;;;;;;;8.75;7.75;;;;;13.27;46.88;98550.88;4664103;29;103942;-77
2021/03/04 05:07:26;;;;;;;;;8.50;7.50;;;;;13.26;46.31;98550.03;4661920;29;103164;-77
2021/03/04 05:09:52;;;;;;;;;8.25;7.50;;;;;13.25;47.38;98547.53;4659110;29;103967;-77
2021/03/04 05:12:19;;;;;;;;;12.00;7.50;;;;;13.26;46.62;98551.94;4655634;29;103171;-76
2021/03/04 05:14:47;;;;;;;;;8.00;7.00;;;;;13.25;47.25;98547.53;4659418;29;104357;-77
2021/03/04 05:17:14;;;;;;;;;7.75;7.75;;;;;13.25;47.20;98545.66;4659253;29;102709;-78
2021/03/04 05:19:41;;;;;;;;;9.50;7.50;;;;;13.26;46.92;98541.91;4670006;29;102982;-76
2021/03/04 05:22:07;;;;;;;;;8.00;7.00;;;;;13.26;46.86;98547.31;4681211;29;103013;-76
2021/03/04 05:24:34;;;;;;;;;8.75;7.50;;;;;13.26;47.43;98541.91;4680917;29;104139;-76
2021/03/04 05:27:01;;;;;;;;;8.00;7.25;;;;;13.26;46.56;98541.91;4666115;29;103062;-76
2021/03/04 05:29:28;;;;;;;;;6.75;6.25;;;;;13.26;47.41;98541.06;4688089;29;103807;-76
2021/03/04 05:31:54;;;;;;;;;9.00;7.25;;;;;13.26;47.64;98541.06;4682645;29;103939;-77
2021/03/04 05:34:21;;;;;;;;;6.00;6.00;;;;;13.23;47.02;98542.34;4682007;29;104587;-77
2021/03/04 05:36:48;;;;;;;;;10.75;5.00;;;;;13.25;46.68;98540.22;4667380;29;102810;-77
2021/03/04 05:39:15;;;;;;;;;8.00;7.00;;;;;13.26;47.25;98541.91;4683330;29;103122;-76
2021/03/04 05:41:42;;;;;;;;;7.00;7.00;;;;;13.25;47.30;98540.22;4687078;29;104349;-77
2021/03/04 05:44:08;;;;;;;;;7.75;6.50;;;;;13.25;47.65;98531.25;4667208;29;104547;-76
2021/03/04 05:46:36;;;;;;;;;7.00;7.00;;;;;13.25;47.50;98528.53;4663269;29;103239;-76
2021/03/04 05:49:03;;;;;;;;;9.75;7.25;;;;;13.21;46.88;98533.56;4671206;29;103020;-76
2021/03/04 05:51:49;;;;;;;;;8.75;8.00;;;;;13.24;47.58;98526.88;4670174;29;109521;-77
2021/03/04 05:54:16;;;;;;;;;7.25;6.00;;;;;13.24;47.55;98524.16;4660662;29;104423;-77
2021/03/04 05:56:42;;;;;;;;;10.00;8.50;;;;;13.22;47.58;98521.66;4671640;29;103017;-77
2021/03/04 05:59:09;;;;;;;;;8.75;7.75;;;;;13.23;47.21;98517.91;4643408;29;103591;-77
2021/03/04 06:01:36;;;;;;;;;9.00;8.00;;;;;13.24;47.51;98518.72;4648887;29;103688;-77
2021/03/04 06:04:03;;;;;;;;;6.00;6.00;;;;;13.23;47.58;98509.75;4678405;29;104155;-77
2021/03/04 06:06:29;;;;;;;;;8.25;6.75;;;;;13.23;47.12;98508.94;4674339;29;102873;-77
2021/03/04 06:08:56;;;;;;;;;9.00;7.50;;;;;13.23;46.78;98514.34;4652152;29;104364;-77
2021/03/04 06:11:23;;;;;;;;;9.50;8.00;;;;;13.23;46.84;98506.22;4654061;29;104588;-77
2021/03/04 06:13:50;;;;;;;;;7.75;7.00;;;;;13.21;47.98;98509.13;4662801;29;105085;-77
2021/03/04 06:16:16;;;;;;;;;7.75;7.75;;;;;13.23;46.83;98519.78;4658104;29;103019;-76
2021/03/04 06:18:44;;;;;;;;;7.25;6.25;;;;;13.21;47.79;98511.84;4690035;29;102804;-76
2021/03/04 06:21:20;;;;;;;;;8.00;7.75;;;;;13.23;46.87;98520.63;4684003;29;104031;-76
2021/03/04 06:23:47;;;;;;;;;8.50;6.75;;;;;13.21;46.75;98520.00;4686419;29;104041;-76
2021/03/04 06:26:36;;;;;;;;;8.00;7.00;;;;;13.21;47.68;98514.56;4686064;29;102941;-77
2021/03/04 06:29:15;;;;;;;;;7.00;7.00;;;;;13.21;46.96;98509.13;4669981;29;103013;-76
2021/03/04 06:31:42;;;;;;;;;8.00;6.75;;;;;13.21;46.66;98506.44;4682282;29;102967;-76
2021/03/04 06:34:19;;;;;;;;;7.00;6.25;;;;;13.21;46.44;98506.44;4667429;29;104401;-77
2021/03/04 06:37:12;;;;;;;;;6.00;5.50;;;;;13.20;47.49;98499.31;4685916;29;103036;-77
2021/03/04 06:39:43;;;;;;;;;7.50;6.00;;;;;13.19;46.67;98492.22;4571728;29;104762;-77
2021/03/04 06:42:10;;;;;;;;;8.75;8.00;;;;;13.18;46.49;98496.00;4677859;29;103355;-77
2021/03/04 06:44:43;;;;;;;;;8.75;7.50;;;;;13.21;47.25;98497.44;4678351;29;104163;-76
2021/03/04 06:47:10;;;;;;;;;7.25;6.75;;;;;13.20;46.60;98502.03;4679213;29;105375;-76
2021/03/04 06:49:42;;;;;;;;;8.00;7.00;;;;;13.20;47.00;98499.31;4681404;29;102764;-77
2021/03/04 06:52:12;;;;;;;;;11.50;6.75;;;;;13.19;46.59;98497.66;4679628;29;102977;-76
2021/03/04 06:54:41;;;;;;;;;9.25;8.00;;;;;13.21;46.58;98500.16;4678532;29;104448;-77
2021/03/04 06:57:11;;;;;;;;;6.50;6.50;;;;;13.20;46.71;98493.06;4684670;29;102867;-77
2021/03/04 06:59:42;;;;;;;;;9.00;7.50;;;;;13.20;46.68;98502.03;4682797;29;102941;-77
2021/03/04 07:02:09;;;;;;;;;10.50;8.00;;;;;13.19;46.39;98497.66;4665586;29;103025;-77
2021/03/04 07:04:36;;;;;;;;;6.25;5.50;;;;;13.20;47.00;98495.78;4663916;29;104541;-76
2021/03/04 07:07:05;;;;;;;;;10.75;8.25;;;;;13.20;47.17;98502.03;4672506;29;103661;-76
2021/03/04 07:09:34;;;;;;;;;8.75;8.00;;;;;13.20;47.13;98496.59;4687483;29;103057;-77
2021/03/04 07:12:01;;;;;;;;;11.00;7.00;;;;;13.20;46.49;98498.50;4670951;29;103085;-76
2021/03/04 07:14:29;;;;;;;;;10.75;8.75;;;;;13.20;46.60;98493.06;4668187;29;103830;-77
2021/03/04 07:16:55;;;;;;;;;7.50;7.00;;;;;13.20;47.08;98483.03;4676975;29;103008;-77
2021/03/04 07:19:22;;;;;;;;;10.25;8.00;;;;;13.19;46.57;98486.78;4670252;29;103040;-76
2021/03/04 07:21:49;;;;;;;;;6.00;6.00;;;;;13.20;47.39;98484.91;4668155;29;103175;-76
2021/03/04 07:24:16;;;;;;;;;7.00;6.00;;;;;13.19;46.99;98486.78;4693182;29;104061;-76
2021/03/04 07:26:43;;;;;;;;;8.75;7.00;;;;;13.20;47.05;98487.63;4691766;29;103446;-77
2021/03/04 07:29:10;;;;;;;;;6.75;6.25;;;;;13.20;47.31;98487.63;4673030;29;107885;-77
2021/03/04 07:31:38;;;;;;;;;9.00;8.00;;;;;13.20;46.89;98498.50;4694767;29;103023;-76
2021/03/04 07:34:11;;;;;;;;;8.25;7.00;;;;;13.20;47.22;98491.19;4652141;29;104095;-77
2021/03/04 07:36:54;;;;;;;;;7.00;7.00;;;;;13.20;46.59;98485.75;4659154;29;103040;-77
2021/03/04 07:39:35;;;;;;;;;8.75;8.00;;;;;13.21;46.38;98489.31;4676025;29;105134;-76
2021/03/04 07:42:14;;;;;;;;;7.50;7.00;;;;;13.20;46.68;98485.75;4667010;29;102880;-76
2021/03/04 07:44:41;;;;;;;;;7.75;7.00;;;;;13.21;46.39;98501.00;4610844;29;109830;-76
2021/03/04 07:47:08;;;;;;;;;0.75;0.75;;;;;13.23;47.02;98495.34;4692847;29;102915;-76
2021/03/04 07:49:37;;;;;;;;;9.50;8.75;;;;;13.21;46.85;98489.31;4667611;29;102873;-76
2021/03/04 07:52:14;;;;;;;;;9.00;6.00;;;;;13.20;47.33;98480.31;4692545;29;105038;-76
2021/03/04 07:54:43;;;;;;;;;8.25;7.00;;;;;13.23;46.21;98479.06;4613963;29;109134;-78
2021/03/04 07:57:14;;;;;;;;;9.75;7.75;;;;;13.21;46.37;98473.84;4684841;29;102710;-78
2021/03/04 08:00:02;;;;;;;;;9.25;7.75;;;;;13.21;46.69;98478.44;4688920;29;102824;-78
2021/03/04 08:02:42;;;;;;;;;5.50;5.50;;;;;13.22;47.19;98474.69;4689199;29;103344;-78
2021/03/04 08:05:19;;;;;;;;;7.00;6.50;;;;;13.21;46.33;98476.56;4687198;29;109549;-79
2021/03/04 08:07:50;;;;;;;;;7.00;6.25;;;;;13.23;47.18;98473.63;4689987;29;103101;-79
2021/03/04 08:10:17;;;;;;;;;8.75;7.50;;;;;13.21;46.90;98473.84;4691147;29;104773;-76
2021/03/04 08:12:52;;;;;;;;;9.00;8.75;;;;;13.22;46.99;98475.50;4685660;29;104020;-76
2021/03/04 08:15:30;;;;;;;;;6.75;6.00;;;;;13.23;46.54;98485.31;4672494;29;104412;-76
2021/03/04 08:17:57;;;;;;;;;7.00;6.00;;;;;13.21;46.32;98470.28;4690667;29;104042;-76
2021/03/04 08:20:24;;;;;;;;;7.00;6.00;;;;;13.24;46.76;98470.69;4682913;29;102911;-76
2021/03/04 08:22:52;;;;;;;;;7.50;7.25;;;;;13.24;47.18;98467.13;4691163;29;103066;-76
2021/03/04 08:25:24;;;;;;;;;9.25;7.50;;;;;13.24;47.25;98473.38;4682136;29;104067;-76
2021/03/04 08:27:53;;;;;;;;;6.50;6.00;;;;;13.24;47.02;98473.38;4670694;29;103454;-76
2021/03/04 08:30:36;;;;;;;;;8.25;7.25;;;;;13.24;46.25;98467.97;4691216;29;102833;-76
2021/03/04 08:33:05;;;;;;;;;9.00;7.75;;;;;13.26;46.64;98470.47;4690353;29;104187;-76
2021/03/04 08:35:35;;;;;;;;;8.75;7.00;;;;;13.25;46.62;98461.47;4678295;29;109693;-76
2021/03/04 08:38:06;;;;;;;;;7.50;6.50;;;;;13.24;46.84;98458.97;4676074;29;105081;-76
2021/03/04 08:40:44;;;;;;;;;8.00;7.00;;;;;13.24;47.12;98451.66;4671266;29;103104;-76
2021/03/04 08:43:14;;;;;;;;;9.00;8.00;;;;;13.27;46.35;98458.56;4653236;29;102983;-76
2021/03/04 08:45:41;;;;;;;;;6.25;6.25;;;;;13.27;46.48;98466.69;4692494;29;112444;-76
2021/03/04 08:48:10;;;;;;;;;7.25;7.00;;;;;13.25;46.78;98452.50;4670282;29;102878;-76
2021/03/04 08:50:45;;;;;;;;;6.75;6.75;;;;;13.27;47.01;98459.41;4692784;29;105054;-76
2021/03/04 08:53:15;;;;;;;;;6.25;5.75;;;;;13.27;46.63;98462.09;4686223;29;104486;-76
2021/03/04 08:55:45;;;;;;;;;7.25;7.25;;;;;13.28;46.29;98454.78;4667001;29;104069;-76
2021/03/04 08:58:13;;;;;;;;;6.75;6.50;;;;;13.29;46.30;98457.28;4683163;29;103222;-76
2021/03/04 09:00:40;;;;;;;;;7.50;6.25;;;;;13.29;47.17;98454.56;4673463;29;102957;-76
2021/03/04 09:03:18;;;;;;;;;6.50;6.00;;;;;13.30;47.06;98455.38;4673102;29;102970;-76
2021/03/04 09:05:45;;;;;;;;;12.00;9.00;;;;;13.27;46.20;98451.25;4668209;29;104856;-76
2021/03/04 09:08:14;;;;;;;;;7.50;6.00;;;;;13.30;46.92;98455.38;4684653;29;104414;-76
2021/03/04 09:10:51;;;;;;;;;7.25;7.00;;;;;13.30;46.36;98445.38;4669564;29;103011;-76
2021/03/04 09:13:24;;;;;;;;;9.50;7.50;;;;;13.32;46.94;98445.97;4685907;29;102930;-76
2021/03/04 09:15:56;;;;;;;;;6.00;5.25;;;;;13.30;46.88;98441.81;4692126;29;104903;-76
2021/03/04 09:18:24;;;;;;;;;9.00;7.00;;;;;13.31;45.99;98441.59;4685210;29;103698;-76
2021/03/04 09:20:54;;;;;;;;;7.25;7.00;;;;;13.32;46.04;98442.44;4692320;29;102961;-76
2021/03/04 09:23:21;;;;;;;;;7.25;6.00;;;;;13.33;46.06;98438.63;4685343;29;102940;-76
2021/03/04 09:25:52;;;;;;;;;7.00;6.75;;;;;13.33;46.54;98441.34;4670093;29;106724;-76
2021/03/04 09:28:19;;;;;;;;;5.75;5.00;;;;;13.33;46.86;98433.22;4677980;29;103045;-76
2021/03/04 09:30:47;;;;;;;;;8.00;7.00;;;;;13.33;46.63;98434.03;4680190;29;102980;-76
2021/03/04 09:33:21;;;;;;;;;8.75;6.00;;;;;13.34;46.44;98438.44;4664511;29;103547;-76
2021/03/04 09:36:01;;;;;;;;;9.00;7.00;;;;;13.35;46.12;98441.97;4690466;29;104359;-76
2021/03/04 09:38:29;;;;;;;;;8.00;8.00;;;;;13.35;46.02;98431.94;4686671;29;103036;-76
2021/03/04 09:41:12;;;;;;;;;6.25;6.25;;;;;13.36;46.96;98425.47;4685484;29;102754;-76
2021/03/04 09:43:41;;;;;;;;;6.25;5.75;;;;;13.36;45.93;98422.75;4676728;29;103107;-76
2021/03/04 09:46:12;;;;;;;;;7.00;6.75;;;;;13.37;46.14;98435.25;4670416;29;104159;-76
2021/03/04 09:48:39;;;;;;;;;7.75;6.00;;;;;13.37;46.88;98429.81;4690848;29;103120;-76
2021/03/04 09:51:07;;;;;;;;;7.50;7.00;;;;;13.37;45.84;98427.13;4686639;29;103659;-76
2021/03/04 09:53:44;;;;;;;;;8.25;6.25;;;;;13.39;46.33;98424.19;4685916;29;102983;-77
2021/03/04 09:56:11;;;;;;;;;7.00;6.00;;;;;13.37;46.44;98418.16;4674944;29;111564;-77
2021/03/04 09:58:42;;;;;;;;;7.00;7.00;;;;;13.40;46.52;98415.00;4671715;29;103053;-77
2021/03/04 10:01:08;;;;;;;;;8.75;6.50;;;;;13.41;46.33;98408.50;4683493;29;103080;-77
2021/03/04 10:03:42;;;;;;;;;6.25;5.50;;;;;13.40;46.82;98413.09;4694541;29;102767;-76
2021/03/04 10:06:20;;;;;;;;;6.75;6.00;;;;;13.43;46.81;98421.84;4681676;29;104178;-76
2021/03/04 10:08:51;;;;;;;;;7.00;6.00;;;;;13.44;46.76;98418.09;4670153;29;104452;-77
2021/03/04 10:11:22;;;;;;;;;7.00;6.50;;;;;13.44;46.87;98418.09;4669990;29;103804;-76
2021/03/04 10:13:50;;;;;;;;;7.00;6.25;;;;;13.44;46.06;98412.66;4684192;29;103062;-77
2021/03/04 10:16:17;;;;;;;;;7.50;6.00;;;;;13.45;46.45;98401.56;4665867;29;104340;-76
2021/03/04 10:18:50;;;;;;;;;8.00;6.50;;;;;13.45;46.53;98393.41;4659648;29;102910;-77
2021/03/04 10:21:17;;;;;;;;;7.50;7.00;;;;;13.46;46.72;98400.53;4687146;29;102850;-77
2021/03/04 10:23:48;;;;;;;;;6.75;6.50;;;;;13.47;46.79;98390.47;4687361;29;105884;-77
2021/03/04 10:26:15;;;;;;;;;8.25;7.25;;;;;13.47;45.87;98390.47;4669483;29;103891;-77
2021/03/04 10:28:41;;;;;;;;;4.75;4.50;;;;;13.47;46.84;98391.28;4688063;29;103743;-77
2021/03/04 10:31:08;;;;;;;;;6.75;6.75;;;;;13.48;46.81;98386.69;4685574;29;103740;-76
2021/03/04 10:33:35;;;;;;;;;6.00;4.75;;;;;13.49;46.58;98383.78;4687343;29;103812;-77
2021/03/04 10:36:02;;;;;;;;;5.00;4.50;;;;;13.48;46.23;98392.97;4681460;29;109470;-77
2021/03/04 10:38:29;;;;;;;;;5.50;5.00;;;;;13.47;46.26;98385.03;4689027;29;102816;-77
2021/03/04 10:40:56;;;;;;;;;6.00;6.00;;;;;13.50;46.67;98373.75;4687326;29;102944;-77
2021/03/04 10:43:22;;;;;;;;;6.75;6.00;;;;;13.50;45.94;98379.16;4688864;29;102934;-77
2021/03/04 10:45:49;;;;;;;;;7.25;6.00;;;;;13.51;46.83;98380.84;4670477;29;104495;-77
2021/03/04 10:48:17;;;;;;;;;6.25;5.00;;;;;13.51;45.89;98380.84;4686695;29;102988;-77
2021/03/04 10:50:44;;;;;;;;;6.50;5.50;;;;;13.51;46.29;98370.78;4677103;29;102841;-77
2021/03/04 10:53:11;;;;;;;;;9.00;6.25;;;;;13.52;45.68;98372.44;4690012;29;102965;-77
2021/03/04 10:55:40;;;;;;;;;7.50;6.50;;;;;13.52;45.84;98363.47;4682151;29;108183;-77
2021/03/04 10:58:07;;;;;;;;;5.00;4.00;;;;;13.52;45.75;98366.19;4679613;29;104494;-77
2021/03/04 11:00:34;;;;;;;;;7.00;7.00;;;;;13.54;45.86;98366.78;4684122;29;102841;-77
2021/03/04 11:03:02;;;;;;;;;6.00;5.50;;;;;13.54;45.99;98358.66;4687570;29;102983;-77
2021/03/04 11:05:29;;;;;;;;;5.50;5.00;;;;;13.54;46.16;98353.22;4682614;29;104045;-77
2021/03/04 11:07:56;;;;;;;;;7.00;6.25;;;;;13.55;46.26;98354.88;4686586;29;102892;-77
2021/03/04 11:10:22;;;;;;;;;7.00;6.00;;;;;13.55;46.62;98353.00;4679755;29;109886;-77
2021/03/04 11:12:50;;;;;;;;;7.00;6.00;;;;;13.57;46.58;98348.16;4678905;29;103017;-77
2021/03/04 11:15:18;;;;;;;;;7.25;5.75;;;;;13.58;46.42;98346.25;4684714;29;104469;-77
2021/03/04 11:17:49;;;;;;;;;6.50;6.25;;;;;13.58;45.71;98343.53;4677664;29;102802;-77
2021/03/04 11:20:16;;;;;;;;;5.50;5.00;;;;;13.58;45.66;98341.66;4687819;29;102869;-77
2021/03/04 11:22:43;;;;;;;;;6.25;5.00;;;;;13.59;46.69;98342.50;4661481;29;103031;-77
2021/03/04 11:25:10;;;;;;;;;6.25;5.75;;;;;13.59;46.69;98340.63;4689358;29;104127;-77
2021/03/04 11:27:37;;;;;;;;;5.50;5.50;;;;;13.59;46.61;98334.34;4689901;29;102696;-77
2021/03/04 11:30:06;;;;;;;;;7.00;6.00;;;;;13.60;45.70;98327.88;4692809;29;102914;-77